createdAt,value
2018-06-24T00:00:34.490Z,21.80
2018-06-24T00:03:05.308Z,21.80
2018-06-24T00:05:35.727Z,21.80
2018-06-24T00:08:06.339Z,21.80
2018-06-24T00:13:06.858Z,21.80
2018-06-24T00:20:37.412Z,21.80
2018-06-24T00:23:07.983Z,21.80
2018-06-24T00:25:38.735Z,21.80
2018-06-24T00:28:09.163Z,21.80
2018-06-24T00:33:09.687Z,21.80
2018-06-24T00:38:10.083Z,21.80
2018-06-24T00:40:40.718Z,21.80
2018-06-24T00:43:11.234Z,21.70
2018-06-24T00:45:41.822Z,21.80
2018-06-24T00:48:12.273Z,21.80
2018-06-24T00:50:42.724Z,21.70
2018-06-24T00:53:13.149Z,21.70
2018-06-24T00:55:44.038Z,21.70
2018-06-24T00:58:14.852Z,21.70
2018-06-24T01:00:45.413Z,21.70
2018-06-24T01:03:15.953Z,21.70
2018-06-24T01:05:46.565Z,21.70
2018-06-24T01:08:17.043Z,21.70
2018-06-24T01:10:47.565Z,21.70
2018-06-24T01:13:17.940Z,21.70
2018-06-24T01:15:48.572Z,21.70
2018-06-24T01:18:18.964Z,21.70
2018-06-24T01:20:49.545Z,21.70
2018-06-24T01:23:20.204Z,21.70
2018-06-24T01:25:50.667Z,21.70
2018-06-24T01:28:21.150Z,21.70
2018-06-24T01:33:21.308Z,21.70
2018-06-24T01:35:51.691Z,21.70
2018-06-24T01:38:22.271Z,21.70
2018-06-24T01:40:52.885Z,21.70
2018-06-24T01:43:24.091Z,21.70
2018-06-24T01:45:54.603Z,21.70
2018-06-24T01:48:25.103Z,21.60
2018-06-24T01:50:55.595Z,21.70
2018-06-24T01:53:26.120Z,21.60
2018-06-24T01:55:56.498Z,21.60
2018-06-24T02:00:57.202Z,21.60
2018-06-24T02:05:57.969Z,21.60
2018-06-24T02:08:28.534Z,21.60
2018-06-24T02:10:59.243Z,21.60
2018-06-24T02:13:29.793Z,21.60
2018-06-24T02:16:00.475Z,21.50
2018-06-24T02:18:31.194Z,21.50
2018-06-24T02:21:01.763Z,21.60
2018-06-24T02:23:32.198Z,21.60
2018-06-24T02:26:03.202Z,21.60
2018-06-24T02:28:33.821Z,21.60
2018-06-24T02:31:04.465Z,21.60
2018-06-24T02:33:35.004Z,21.60
2018-06-24T02:36:05.551Z,21.60
2018-06-24T02:38:35.983Z,21.60
2018-06-24T02:41:06.489Z,21.60
2018-06-24T02:43:37.041Z,21.70
2018-06-24T02:46:07.966Z,21.70
2018-06-24T02:48:38.536Z,21.70
2018-06-24T02:53:38.675Z,21.70
2018-06-24T02:56:09.179Z,21.70
2018-06-24T02:58:39.857Z,21.70
2018-06-24T03:03:40.554Z,21.70
2018-06-24T03:06:11.254Z,21.70
2018-06-24T03:08:41.796Z,21.70
2018-06-24T03:13:42.545Z,21.70
2018-06-24T03:16:13.115Z,21.70
2018-06-24T03:18:43.978Z,21.70
2018-06-24T03:21:14.503Z,21.70
2018-06-24T03:23:45.048Z,21.70
2018-06-24T03:26:15.565Z,21.70
2018-06-24T03:28:45.900Z,21.80
2018-06-24T03:33:46.256Z,21.70
2018-06-24T03:36:16.701Z,21.80
2018-06-24T03:38:47.421Z,21.70
2018-06-24T03:41:17.793Z,21.70
2018-06-24T03:43:48.315Z,21.70
2018-06-24T03:46:18.822Z,21.70
2018-06-24T03:48:49.324Z,21.80
2018-06-24T03:51:19.859Z,21.80
2018-06-24T03:53:50.248Z,21.80
2018-06-24T03:56:20.543Z,21.80
2018-06-24T03:58:50.936Z,21.80
2018-06-24T04:01:21.405Z,21.80
2018-06-24T04:03:51.902Z,21.80
2018-06-24T04:06:22.404Z,21.80
2018-06-24T04:08:53.467Z,21.80
2018-06-24T04:11:24.034Z,21.80
2018-06-24T04:13:54.860Z,21.80
2018-06-24T04:16:25.590Z,21.70
2018-06-24T04:18:56.197Z,21.70
2018-06-24T04:21:26.725Z,21.70
2018-06-24T04:23:57.174Z,21.80
2018-06-24T04:26:27.742Z,21.70
2018-06-24T04:28:58.307Z,21.70
2018-06-24T04:31:28.946Z,21.80
2018-06-24T04:36:29.285Z,21.90
2018-06-24T04:38:59.696Z,21.90
2018-06-24T04:41:30.448Z,21.90
2018-06-24T04:44:00.873Z,22.00
2018-06-24T04:46:31.271Z,22.00
2018-06-24T04:49:01.630Z,22.00
2018-06-24T04:51:32.817Z,22.00
2018-06-24T04:56:32.930Z,22.10
2018-06-24T04:59:03.745Z,22.10
2018-06-24T05:01:34.151Z,22.10
2018-06-24T05:04:04.639Z,22.10
2018-06-24T05:06:35.202Z,22.10
2018-06-24T05:09:08.197Z,22.20
2018-06-24T05:11:38.741Z,22.20
2018-06-24T05:14:09.254Z,22.20
2018-06-24T05:16:39.633Z,22.30
2018-06-24T05:21:39.940Z,22.40
2018-06-24T05:24:10.771Z,22.40
2018-06-24T05:26:41.431Z,22.40
2018-06-24T05:29:12.242Z,22.40
2018-06-24T05:31:42.671Z,22.50
2018-06-24T05:34:12.970Z,22.50
2018-06-24T05:36:44.125Z,22.60
2018-06-24T05:44:14.490Z,22.60
2018-06-24T05:46:45.037Z,22.60
2018-06-24T05:51:45.507Z,22.70
2018-06-24T05:54:16.009Z,22.70
2018-06-24T05:56:46.719Z,22.80
2018-06-24T05:59:17.293Z,22.90
2018-06-24T06:01:47.955Z,22.90
2018-06-24T06:04:18.409Z,23.00
2018-06-24T06:06:48.955Z,23.00
2018-06-24T06:09:19.576Z,23.00
2018-06-24T06:11:50.411Z,23.00
2018-06-24T06:14:20.787Z,23.10
2018-06-24T06:16:51.269Z,23.10
2018-06-24T06:19:21.791Z,23.20
2018-06-24T06:21:52.443Z,23.40
2018-06-24T06:24:22.767Z,23.70
2018-06-24T06:26:53.227Z,23.90
2018-06-24T06:29:24.021Z,24.00
2018-06-24T06:31:54.475Z,24.10
2018-06-24T06:34:24.944Z,24.20
2018-06-24T06:39:25.333Z,24.20
2018-06-24T06:41:55.900Z,24.40
2018-06-24T06:44:26.565Z,24.80
2018-06-24T06:46:57.105Z,25.00
2018-06-24T06:49:27.733Z,25.30
2018-06-24T06:51:58.269Z,25.50
2018-06-24T06:54:28.710Z,25.60
2018-06-24T06:56:59.456Z,25.80
2018-06-24T06:59:29.925Z,25.90
2018-06-24T07:02:00.697Z,26.00
2018-06-24T07:04:31.206Z,26.20
2018-06-24T07:07:02.067Z,26.30
2018-06-24T07:14:32.054Z,26.70
2018-06-24T07:17:02.528Z,26.80
2018-06-24T07:19:32.913Z,26.70
2018-06-24T07:22:03.744Z,26.60
2018-06-24T07:24:34.138Z,26.70
2018-06-24T07:27:04.672Z,26.80
2018-06-24T07:29:35.625Z,26.80
2018-06-24T07:34:36.073Z,26.80
2018-06-24T07:37:06.551Z,26.70
2018-06-24T07:44:36.719Z,27.00
2018-06-24T07:47:07.221Z,26.90
2018-06-24T07:49:37.862Z,27.00
2018-06-24T07:52:08.399Z,27.10
2018-06-24T07:54:39.163Z,27.20
2018-06-24T07:57:09.894Z,27.20
2018-06-24T07:59:40.334Z,27.40
2018-06-24T08:02:10.814Z,27.60
2018-06-24T08:04:41.431Z,27.70
2018-06-24T08:07:11.834Z,27.70
2018-06-24T08:09:42.660Z,27.70
2018-06-24T08:12:13.086Z,27.80
2018-06-24T08:14:43.599Z,28.10
2018-06-24T08:17:14.512Z,28.00
2018-06-24T08:19:44.901Z,28.10
2018-06-24T08:22:15.372Z,28.30
2018-06-24T08:24:45.868Z,28.40
2018-06-24T08:27:16.201Z,28.50
2018-06-24T08:29:46.764Z,28.60
2018-06-24T08:32:17.191Z,28.80
2018-06-24T08:34:47.817Z,28.80
2018-06-24T08:37:18.200Z,28.70
2018-06-24T08:39:48.718Z,28.90
2018-06-24T08:42:27.730Z,29.00
2018-06-24T08:44:58.892Z,29.10
2018-06-24T08:47:31.047Z,28.90
2018-06-24T08:50:02.854Z,28.80
2018-06-24T08:52:34.071Z,28.70
2018-06-24T08:55:06.356Z,28.80
2018-06-24T08:57:37.774Z,28.50
2018-06-24T09:00:08.954Z,28.50
2018-06-24T09:02:39.569Z,28.80
2018-06-24T09:05:21.699Z,29.00
2018-06-24T09:07:58.956Z,29.30
2018-06-24T09:10:35.461Z,29.40
2018-06-24T09:13:08.692Z,29.70
2018-06-24T09:15:45.310Z,29.90
2018-06-24T09:20:50.406Z,30.20
2018-06-24T09:23:23.143Z,30.40
2018-06-24T09:25:53.866Z,30.40
2018-06-24T09:28:24.426Z,30.50
2018-06-24T09:30:55.230Z,30.30
2018-06-24T09:33:25.780Z,30.50
2018-06-24T09:35:56.223Z,30.50
2018-06-24T09:38:26.718Z,30.50
2018-06-24T09:40:57.468Z,30.00
2018-06-24T09:43:27.917Z,29.70
2018-06-24T09:45:58.417Z,29.60
2018-06-24T09:50:59.300Z,29.60
2018-06-24T09:53:29.863Z,29.50
2018-06-24T09:56:00.682Z,29.50
2018-06-24T09:58:31.182Z,29.60
2018-06-24T10:01:01.816Z,29.90
2018-06-24T10:03:32.343Z,30.00
2018-06-24T10:06:03.118Z,29.90
2018-06-24T10:08:33.541Z,30.00
2018-06-24T10:11:04.983Z,29.90
2018-06-24T10:13:35.727Z,29.70
2018-06-24T10:16:06.176Z,29.40
2018-06-24T10:18:39.564Z,29.20
2018-06-24T10:21:10.059Z,29.20
2018-06-24T10:23:40.458Z,29.60
2018-06-24T10:26:10.891Z,30.00
2018-06-24T10:28:41.431Z,30.10
2018-06-24T10:31:11.919Z,30.10
2018-06-24T10:33:42.337Z,30.10
2018-06-24T10:36:12.871Z,29.90
2018-06-24T10:38:43.481Z,29.90
2018-06-24T10:41:14.030Z,29.90
2018-06-24T10:43:44.551Z,30.20
2018-06-24T10:46:15.512Z,30.30
2018-06-24T10:48:46.114Z,30.10
2018-06-24T10:51:16.903Z,29.90
2018-06-24T10:53:47.475Z,30.20
2018-06-24T10:56:18.176Z,30.50
2018-06-24T10:58:48.785Z,30.70
2018-06-24T11:03:49.443Z,31.00
2018-06-24T11:06:20.587Z,31.10
2018-06-24T11:08:50.988Z,31.00
2018-06-24T11:11:21.565Z,31.00
2018-06-24T11:13:52.175Z,31.10
2018-06-24T11:16:29.070Z,31.10
2018-06-24T11:18:59.747Z,31.20
2018-06-24T11:21:31.031Z,31.30
2018-06-24T11:24:01.443Z,31.40
2018-06-24T11:26:32.044Z,31.30
2018-06-24T11:29:02.883Z,31.40
2018-06-24T11:31:33.328Z,31.50
2018-06-24T11:34:03.827Z,31.10
2018-06-24T11:36:34.381Z,31.00
2018-06-24T11:41:34.628Z,31.20
2018-06-24T11:44:05.330Z,31.20
2018-06-24T11:46:35.891Z,31.30
2018-06-24T11:51:36.527Z,31.40
2018-06-24T11:56:36.756Z,31.00
2018-06-24T11:59:07.139Z,31.10
2018-06-24T12:01:37.662Z,31.40
2018-06-24T12:04:08.043Z,31.50
2018-06-24T12:06:38.576Z,31.30
2018-06-24T12:09:11.912Z,31.30
2018-06-24T12:14:13.175Z,31.10
2018-06-24T12:16:43.579Z,31.30
2018-06-24T12:19:14.476Z,31.50
2018-06-24T12:21:45.282Z,31.50
2018-06-24T12:24:15.702Z,31.30
2018-06-24T12:26:46.227Z,30.90
2018-06-24T12:29:16.621Z,30.90
2018-06-24T12:34:17.212Z,31.10
2018-06-24T12:36:47.664Z,31.10
2018-06-24T12:39:19.016Z,31.20
2018-06-24T12:41:49.573Z,31.10
2018-06-24T12:44:20.271Z,31.30
2018-06-24T12:46:50.866Z,31.30
2018-06-24T12:49:23.648Z,31.00
2018-06-24T12:51:54.340Z,30.80
2018-06-24T12:54:24.831Z,30.90
2018-06-24T12:56:55.294Z,31.20
2018-06-24T12:59:26.676Z,31.30
2018-06-24T13:01:57.239Z,31.10
2018-06-24T13:04:27.673Z,31.30
2018-06-24T13:06:59.067Z,31.60
2018-06-24T13:09:30.042Z,31.80
2018-06-24T13:12:00.547Z,31.90
2018-06-24T13:14:34.980Z,32.10
2018-06-24T13:17:07.975Z,32.10
2018-06-24T13:19:38.394Z,32.10
2018-06-24T13:22:08.823Z,31.90
2018-06-24T13:24:39.542Z,31.60
2018-06-24T13:27:09.989Z,31.50
2018-06-24T13:29:40.761Z,31.50
2018-06-24T13:32:11.125Z,31.10
2018-06-24T13:34:41.781Z,30.80
2018-06-24T13:37:12.419Z,30.50
2018-06-24T13:39:42.820Z,30.20
2018-06-24T13:42:13.324Z,30.10
2018-06-24T13:44:43.954Z,30.00
2018-06-24T13:47:14.545Z,29.90
2018-06-24T13:49:44.897Z,29.80
2018-06-24T13:52:15.556Z,29.60
2018-06-24T13:54:46.066Z,29.40
2018-06-24T13:57:16.418Z,29.40
2018-06-24T13:59:46.790Z,29.30
2018-06-24T14:02:17.278Z,29.30
2018-06-24T14:04:47.930Z,29.10
2018-06-24T14:07:18.661Z,29.30
2018-06-24T14:09:49.170Z,29.20
2018-06-24T14:14:49.353Z,29.20
2018-06-24T14:19:50.686Z,28.80
2018-06-24T14:22:21.130Z,28.80
2018-06-24T14:24:51.790Z,28.60
2018-06-24T14:27:22.319Z,29.10
2018-06-24T14:29:52.668Z,29.20
2018-06-24T14:32:23.239Z,28.90
2018-06-24T14:34:54.083Z,28.30
2018-06-24T14:37:26.278Z,27.90
2018-06-24T14:39:57.071Z,27.60
2018-06-24T14:44:57.266Z,28.00
2018-06-24T14:47:27.946Z,28.30
2018-06-24T14:49:58.418Z,28.20
2018-06-24T14:52:28.898Z,28.10
2018-06-24T14:54:59.659Z,28.10
2018-06-24T14:57:30.214Z,28.10
2018-06-24T15:00:00.717Z,28.10
2018-06-24T15:02:31.912Z,28.30
2018-06-24T15:05:02.317Z,28.60
2018-06-24T15:07:32.639Z,28.60
2018-06-24T15:10:03.203Z,28.80
2018-06-24T15:12:33.633Z,28.80
2018-06-24T15:15:04.104Z,28.60
2018-06-24T15:17:34.666Z,28.40
2018-06-24T15:20:05.129Z,28.00
2018-06-24T15:22:35.709Z,27.50
2018-06-24T15:25:06.619Z,26.90
2018-06-24T15:27:37.128Z,26.80
2018-06-24T15:30:07.739Z,26.70
2018-06-24T15:32:38.485Z,26.60
2018-06-24T15:35:09.169Z,26.30
2018-06-24T15:37:40.310Z,26.20
2018-06-24T15:40:10.756Z,26.10
2018-06-24T15:42:41.677Z,25.90
2018-06-24T15:45:12.286Z,26.00
2018-06-24T15:47:43.657Z,26.00
2018-06-24T15:50:14.696Z,26.00
2018-06-24T15:52:45.264Z,25.90
2018-06-24T15:55:15.626Z,25.90
2018-06-24T16:00:15.916Z,25.70
2018-06-24T16:05:16.191Z,25.60
2018-06-24T16:07:46.669Z,25.60
2018-06-24T16:10:16.999Z,25.40
2018-06-24T16:15:17.407Z,25.30
2018-06-24T16:17:47.960Z,25.30
2018-06-24T16:20:18.456Z,25.30
2018-06-24T16:22:48.987Z,25.30
2018-06-24T16:30:19.844Z,25.30
2018-06-24T16:32:50.304Z,25.30
2018-06-24T16:35:20.910Z,25.20
2018-06-24T16:37:51.572Z,25.10
2018-06-24T16:40:22.183Z,25.10
2018-06-24T16:45:23.344Z,25.00
2018-06-24T16:47:53.987Z,25.00
2018-06-24T16:50:24.402Z,24.90
2018-06-24T16:52:55.059Z,24.90
2018-06-24T16:55:25.793Z,24.90
2018-06-24T16:57:56.288Z,24.90
2018-06-24T17:00:26.737Z,24.90
2018-06-24T17:02:57.645Z,24.90
2018-06-24T17:05:28.169Z,24.80
2018-06-24T17:07:58.761Z,24.80
2018-06-24T17:10:29.154Z,24.80
2018-06-24T17:12:59.819Z,24.70
2018-06-24T17:15:34.192Z,24.70
2018-06-24T17:18:05.338Z,24.70
2018-06-24T17:20:35.794Z,24.70
2018-06-24T17:23:06.334Z,24.70
2018-06-24T17:25:37.106Z,24.70
2018-06-24T17:28:07.703Z,24.60
2018-06-24T17:30:38.176Z,24.60
2018-06-24T17:33:08.818Z,24.50
2018-06-24T17:35:39.269Z,24.50
2018-06-24T17:38:09.930Z,24.50
2018-06-24T17:40:41.237Z,24.50
2018-06-24T17:43:12.606Z,24.40
2018-06-24T17:45:43.198Z,24.40
2018-06-24T17:48:13.694Z,24.40
2018-06-24T17:50:44.277Z,24.30
2018-06-24T17:53:14.738Z,24.30
2018-06-24T17:55:45.170Z,24.20
2018-06-24T17:58:18.431Z,24.20
2018-06-24T18:00:59.012Z,24.10
2018-06-24T18:03:30.782Z,24.00
2018-06-24T18:08:32.337Z,23.90
2018-06-24T18:11:04.472Z,23.90
2018-06-24T18:13:37.188Z,23.90
2018-06-24T18:16:09.460Z,23.80
2018-06-24T18:18:41.628Z,23.70
2018-06-24T18:21:13.144Z,23.70
2018-06-24T18:23:45.467Z,23.70
2018-06-24T18:26:18.412Z,23.70
2018-06-24T18:28:51.273Z,23.70
2018-06-24T18:31:23.901Z,23.70
2018-06-24T18:36:29.045Z,23.60
2018-06-24T18:39:02.000Z,23.50
2018-06-24T18:41:35.124Z,23.50
2018-06-24T18:44:18.878Z,23.50
2018-06-24T18:46:51.556Z,23.50
2018-06-24T18:51:56.489Z,23.50
2018-06-24T18:54:34.599Z,23.40
2018-06-24T19:13:23.372Z,23.40
2018-06-24T19:15:57.496Z,22.80
2018-06-24T19:18:31.326Z,22.80
2018-06-24T19:21:05.284Z,22.80
2018-06-24T19:23:40.152Z,22.80
2018-06-24T19:26:13.856Z,22.80
2018-06-24T19:28:51.430Z,22.90
2018-06-24T19:31:25.194Z,22.90
2018-06-24T19:34:01.262Z,22.80
2018-06-24T19:36:33.431Z,22.80
2018-06-24T19:39:07.670Z,22.80
2018-06-24T19:41:42.842Z,22.80
2018-06-24T19:44:18.316Z,22.80
2018-06-24T19:46:53.123Z,22.80
2018-06-24T19:49:28.324Z,22.70
2018-06-24T19:52:03.122Z,22.80
2018-06-24T19:54:36.969Z,22.80
2018-06-24T19:57:13.840Z,22.70
2018-06-24T19:59:48.181Z,22.70
2018-06-24T20:02:26.282Z,22.70
2018-06-24T20:04:59.895Z,22.70
2018-06-24T20:07:34.910Z,22.70
2018-06-24T20:10:12.024Z,22.60
2018-06-24T20:12:45.420Z,22.60
2018-06-24T20:22:57.329Z,22.60
2018-06-24T20:25:31.288Z,22.60
2018-06-24T20:30:37.739Z,22.60
2018-06-24T20:33:12.055Z,22.70
2018-06-24T20:35:44.928Z,22.70
2018-06-24T20:38:21.831Z,22.70
2018-06-24T20:40:56.327Z,22.70
2018-06-24T20:43:29.875Z,22.60
2018-06-24T20:46:04.286Z,22.60
2018-06-24T20:48:38.638Z,22.60
2018-06-24T20:51:15.049Z,22.60
2018-06-24T20:53:48.846Z,22.60
2018-06-24T20:56:22.332Z,22.60
2018-06-24T20:58:57.376Z,22.50
2018-06-24T21:01:31.297Z,22.50
2018-06-24T21:04:04.807Z,22.40
2018-06-24T21:06:38.975Z,22.40
2018-06-24T21:09:13.173Z,22.40
2018-06-24T21:11:46.190Z,22.30
2018-06-24T21:14:19.603Z,22.40
2018-06-24T21:16:52.796Z,22.30
2018-06-24T21:19:26.047Z,22.30
2018-06-24T21:21:59.081Z,22.30
2018-06-24T21:24:36.484Z,22.30
2018-06-24T21:27:10.052Z,22.30
2018-06-24T21:29:42.768Z,22.30
2018-06-24T21:32:14.909Z,22.30
2018-06-24T21:34:47.298Z,22.30
2018-06-24T21:37:18.938Z,22.30
2018-06-24T21:39:50.757Z,22.20
2018-06-24T21:42:21.799Z,22.20
2018-06-24T21:47:22.416Z,22.20
2018-06-24T21:49:52.958Z,22.30
2018-06-24T21:52:23.794Z,22.20
2018-06-24T21:54:54.433Z,22.20
2018-06-24T21:59:55.085Z,22.20
2018-06-24T22:02:26.185Z,22.30
2018-06-24T22:09:56.325Z,22.20
2018-06-24T22:12:27.104Z,22.30
2018-06-24T22:14:57.728Z,22.30
2018-06-24T22:17:28.339Z,22.30
2018-06-24T22:19:59.222Z,22.20
2018-06-24T22:22:29.843Z,22.20
2018-06-24T22:25:00.710Z,22.20
2018-06-24T22:30:02.319Z,22.20
2018-06-24T22:32:33.460Z,22.20
2018-06-24T22:37:34.004Z,22.20
2018-06-24T22:40:04.895Z,22.20
2018-06-24T22:42:35.674Z,22.20
2018-06-24T22:45:06.423Z,22.10
2018-06-24T22:47:37.246Z,22.10
2018-06-24T22:50:08.011Z,22.10
2018-06-24T22:52:38.587Z,22.00
2018-06-24T22:55:09.563Z,22.00
2018-06-24T22:57:40.232Z,22.00
2018-06-24T23:00:19.258Z,22.00
2018-06-24T23:02:50.102Z,22.00
2018-06-24T23:05:20.381Z,22.00
2018-06-24T23:07:50.980Z,21.90
2018-06-24T23:10:21.750Z,21.90
2018-06-24T23:12:52.450Z,21.90
2018-06-24T23:15:23.202Z,21.90
2018-06-24T23:17:53.905Z,21.90
2018-06-24T23:20:24.480Z,21.90
2018-06-24T23:25:24.999Z,21.90
2018-06-24T23:27:55.742Z,21.90
2018-06-24T23:30:26.302Z,21.80
2018-06-24T23:32:56.962Z,21.80
2018-06-24T23:35:27.501Z,21.80
2018-06-24T23:37:58.340Z,21.80
2018-06-24T23:40:28.942Z,21.80
2018-06-24T23:42:59.576Z,21.80
2018-06-24T23:45:30.214Z,21.80
2018-06-24T23:50:30.996Z,21.70
2018-06-24T23:53:01.537Z,21.70
2018-06-24T23:55:32.260Z,21.70
2018-06-24T23:58:02.895Z,21.70
